CIET2: Wichita River Nr Charlie, TX

Data processed at Fri Dec 08 2017 23:56


All information presented herein is the property of the government of the United States of America and may be revised or deleted at any time without prior notice.
Dissemination of this information without the expressed written consent of the Public Affairs Office, Tulsa District U.S. Army Corps of Engineers is strictly prohibited.
These data are gathered electronically and, as presented, have not undergone any form of quality control. These data are not guaranteed to be valid or correct.
Go to home page.
Go to station list.

Upstream stations:

Downstream station:
Previous Day
Next Day
Current Day
    
SHEF ID:       CHWT2     Wichita River nr Charlie, TX
STATION TYPE:  

               PRECIP     STAGE  RIV-FLOW  WTR-TEMP   CONDUCT  BAT-LOAD
                   in        ft       cfs         F   umho/cm      volt
              Ccp-Rev   Ccp-Rev   Ccp-Rev   Ccp-Rev   Ccp-Rev   Ccp-Rev
(US/Central)
12/06 00:00      0.00      4.92        62     52.36      4572     12.65
12/06 01:00      0.00      4.92        62     52.11      4553     12.65
12/06 02:00      0.00      4.92        62     51.91      4541     12.65
12/06 03:00      0.00      4.92        62     51.71      4536     12.65
12/06 04:00      0.00      4.92        62     51.51      4537     12.60
12/06 05:00      0.00      4.92        62     51.33      4544     12.60
12/06 06:00      0.00      4.92        62     51.15      4556     12.54
12/06 07:00      0.00      4.92        62     50.95      4572     12.54
12/06 08:00      0.00      4.92        62     50.76      4589     12.54
12/06 09:00      0.00      4.92        62     50.65      4609     13.12
12/06 10:00      0.00      4.92        62     50.63      4629     13.59
12/06 11:00      0.00      4.92        62     50.61      4649     13.83
12/06 12:00      0.00      4.92        62     50.67      4674     14.06
12/06 13:00      0.00      4.91        61     50.88      4702     14.76
12/06 14:00      0.00      4.91        61     51.03      4731     14.12
12/06 15:00      0.00      4.91        61     51.19      4760     14.00
12/06 16:00      0.00      4.91        61     51.30      4781     13.77
12/06 17:00      0.00      4.91        61     51.30      4785     13.53
12/06 18:00      0.00      4.91        61     51.22      4775     12.89
12/06 19:00      0.00      4.91        61     51.10      4752     12.77
12/06 20:00      0.00      4.91        61     50.86      4726     12.71
12/06 21:00      0.00      4.91        61     50.63      4698     12.71
12/06 22:00      0.00      4.91        61     50.38      4669     12.71
12/06 23:00      0.00      4.91        61     50.02      4641     12.65